Wanamakers, Pennsylvania
Current Conditions -  °F | °C
As of 6:54 PM on Saturday 22 Nov 2014 (Local Time) from KRDG Reporting Station
Overcast Overcast  
Wind Chill: 38°   Ceiling: 6500
Heat Index: 41°   Visibility: 10mi
Dew Point: 20°   Wind: 5mph
Humidity: 43%   Direction: 180°S
Pressure: 30.26"   Gusts: NA
Location:  40.6329°N, 75.8768°W
Report Text: KRDG 222354Z AUTO 18004KT 10SM OVC065 05/M07 A3026 RMK AO2 SLP257 60000 T00501067 10061 20050 58003
Loading
Personal Weather Stations






























Interactive Weather Map New forecast layout! Learn more

10-Day Weather Forecast

Advertisements
Track Severe Weather on mobile